Accueil
METAR-TAF:

METAR-TAF

Aéroports :

Base aérienne Cameri

Novare, Italie

latitude: 45-31N, longitude: 008-40E, altitude: 178 m

Observation

Le bulletin a été fait il y a 6 heures et 0 minutes, à 17:55 UTC
Vent 6 kt de sud
Température 15°C
Humidité 27%
Pression 1009 hPa
Visibilité 10 km ou plus
pas de nuages en-dessous de 1500 mètres et pas de cumulonimbus.

METAR: LIMN 191755Z 19006KT CAVOK 15/M04 Q1009 RMK SKC VIS MIN 9999 BLU

Heure: 01:55 (23:55 UTC)

Prévision

Le bulletin a été fait il y a 6 heures et 55 minutes, à 17:00 UTC
Prévision valable du 19 à 18 UTC au 20 à 03 UTC
Vent 5 kt de sud-ouest
Visibilité 10 km ou plus
pas de nuages en-dessous de 1500 mètres et pas de cumulonimbus.

TAF: LIMN 191700Z 1918/2003 22005KT CAVOK

Observations et prévisions météorologiques de plus de 4000 aéroports (messages METAR et TAF).

Les stations disponibles sont représentées par des disques jaunes et rouges sur la carte.

Passer la souris dessus pour voir le nom de la station.

Cliquer dessus pour voir les observations et prévisions météorologiques.

Pour changer de carte: cliquez sur les boutons verts avec une croix noire pour zoomer, sur le bouton vert avec un tiret pour effectuer un zoom arrière, ou sur les flèches vertes pour les cartes adjacentes.


METAR-TAF: